sensor_id;sensor_type;location;lat;lon;timestamp;P1;durP1;ratioP1;P2;durP2;ratioP2
23676;SDS011;31493;49.058;12.190;2023-03-07T13:39:58;9.82;;;6.82;;
23676;SDS011;31493;49.058;12.190;2023-03-07T13:51:18;10.88;;;7.00;;
23676;SDS011;31493;49.058;12.190;2023-03-07T13:53:45;9.20;;;6.25;;
23676;SDS011;31493;49.058;12.190;2023-03-07T13:56:18;10.30;;;6.68;;
23676;SDS011;31493;49.058;12.190;2023-03-07T13:58:51;12.35;;;7.13;;
23676;SDS011;31493;49.058;12.190;2023-03-07T14:01:22;11.25;;;6.18;;
23676;SDS011;31493;49.058;12.190;2023-03-07T14:03:55;10.20;;;6.63;;
23676;SDS011;31493;49.058;12.190;2023-03-07T14:06:29;10.57;;;7.13;;
23676;SDS011;31493;49.058;12.190;2023-03-07T14:08:59;10.25;;;6.63;;
23676;SDS011;31493;49.058;12.190;2023-03-07T14:11:32;11.75;;;6.90;;
23676;SDS011;31493;49.058;12.190;2023-03-07T14:14:13;9.45;;;5.53;;
23676;SDS011;31493;49.058;12.190;2023-03-07T14:17:00;12.35;;;7.25;;
23676;SDS011;31493;49.058;12.190;2023-03-07T14:19:39;12.25;;;7.57;;
23676;SDS011;31493;49.058;12.190;2023-03-07T14:24:51;8.75;;;5.18;;
23676;SDS011;31493;49.058;12.190;2023-03-07T14:27:28;13.73;;;7.28;;
23676;SDS011;31493;49.058;12.190;2023-03-07T14:29:57;10.90;;;6.63;;
23676;SDS011;31493;49.058;12.190;2023-03-07T14:32:25;11.50;;;7.15;;
23676;SDS011;31493;49.058;12.190;2023-03-07T14:34:54;12.18;;;7.75;;
23676;SDS011;31493;49.058;12.190;2023-03-07T14:37:22;10.63;;;7.40;;
23676;SDS011;31493;49.058;12.190;2023-03-07T14:40:00;10.50;;;7.28;;
23676;SDS011;31493;49.058;12.190;2023-03-07T14:42:44;12.60;;;7.53;;
23676;SDS011;31493;49.058;12.190;2023-03-07T14:45:22;13.32;;;8.55;;
23676;SDS011;31493;49.058;12.190;2023-03-07T14:48:00;13.30;;;8.05;;
23676;SDS011;31493;49.058;12.190;2023-03-07T14:50:34;14.88;;;7.60;;
23676;SDS011;31493;49.058;12.190;2023-03-07T14:53:05;14.93;;;6.50;;
23676;SDS011;31493;49.058;12.190;2023-03-07T14:55:41;9.98;;;5.82;;
23676;SDS011;31493;49.058;12.190;2023-03-07T14:58:16;12.13;;;6.80;;
23676;SDS011;31493;49.058;12.190;2023-03-07T15:00:45;11.77;;;6.75;;
23676;SDS011;31493;49.058;12.190;2023-03-07T15:03:23;15.27;;;7.10;;
23676;SDS011;31493;49.058;12.190;2023-03-07T15:05:50;10.88;;;6.82;;
23676;SDS011;31493;49.058;12.190;2023-03-07T15:08:21;13.23;;;7.03;;
23676;SDS011;31493;49.058;12.190;2023-03-07T15:10:51;10.32;;;6.68;;
23676;SDS011;31493;49.058;12.190;2023-03-07T15:13:27;11.45;;;7.38;;
23676;SDS011;31493;49.058;12.190;2023-03-07T15:16:00;11.30;;;7.07;;
23676;SDS011;31493;49.058;12.190;2023-03-07T15:18:30;11.10;;;6.20;;
23676;SDS011;31493;49.058;12.190;2023-03-07T15:21:01;12.05;;;7.30;;
23676;SDS011;31493;49.058;12.190;2023-03-07T15:23:31;10.50;;;6.90;;
23676;SDS011;31493;49.058;12.190;2023-03-07T15:25:59;10.05;;;6.28;;
23676;SDS011;31493;49.058;12.190;2023-03-07T15:28:32;11.07;;;6.93;;
23676;SDS011;31493;49.058;12.190;2023-03-07T15:31:01;11.38;;;6.78;;
23676;SDS011;31493;49.058;12.190;2023-03-07T15:33:29;12.90;;;6.80;;
23676;SDS011;31493;49.058;12.190;2023-03-07T15:36:19;11.85;;;7.82;;
23676;SDS011;31493;49.058;12.190;2023-03-07T15:38:52;12.10;;;7.18;;
23676;SDS011;31493;49.058;12.190;2023-03-07T15:41:38;12.55;;;7.28;;
23676;SDS011;31493;49.058;12.190;2023-03-07T15:44:16;11.93;;;7.28;;
23676;SDS011;31493;49.058;12.190;2023-03-07T15:46:46;11.50;;;7.00;;
23676;SDS011;31493;49.058;12.190;2023-03-07T15:49:19;10.00;;;6.70;;
23676;SDS011;31493;49.058;12.190;2023-03-07T15:51:49;10.70;;;6.45;;
23676;SDS011;31493;49.058;12.190;2023-03-07T15:54:20;10.27;;;7.20;;
23676;SDS011;31493;49.058;12.190;2023-03-07T15:56:54;10.95;;;6.85;;
23676;SDS011;31493;49.058;12.190;2023-03-07T15:59:26;10.85;;;6.93;;
23676;SDS011;31493;49.058;12.190;2023-03-07T16:01:56;10.07;;;6.78;;
23676;SDS011;31493;49.058;12.190;2023-03-07T16:04:30;10.73;;;7.05;;
23676;SDS011;31493;49.058;12.190;2023-03-07T16:07:04;10.40;;;6.93;;
23676;SDS011;31493;49.058;12.190;2023-03-07T16:09:41;10.00;;;6.47;;
23676;SDS011;31493;49.058;12.190;2023-03-07T16:12:09;12.45;;;7.07;;
23676;SDS011;31493;49.058;12.190;2023-03-07T16:14:39;10.82;;;6.75;;
23676;SDS011;31493;49.058;12.190;2023-03-07T16:17:09;9.45;;;6.20;;
23676;SDS011;31493;49.058;12.190;2023-03-07T16:19:43;10.93;;;6.95;;
23676;SDS011;31493;49.058;12.190;2023-03-07T16:22:11;12.65;;;7.25;;
23676;SDS011;31493;49.058;12.190;2023-03-07T16:24:40;12.55;;;6.88;;
23676;SDS011;31493;49.058;12.190;2023-03-07T16:27:07;11.80;;;7.20;;
23676;SDS011;31493;49.058;12.190;2023-03-07T16:29:40;11.63;;;6.90;;
23676;SDS011;31493;49.058;12.190;2023-03-07T16:32:08;9.05;;;5.70;;
23676;SDS011;31493;49.058;12.190;2023-03-07T16:34:37;14.32;;;7.70;;
23676;SDS011;31493;49.058;12.190;2023-03-07T16:37:04;14.20;;;7.40;;
23676;SDS011;31493;49.058;12.190;2023-03-07T16:39:31;14.48;;;7.47;;
23676;SDS011;31493;49.058;12.190;2023-03-07T16:41:59;11.00;;;7.55;;
23676;SDS011;31493;49.058;12.190;2023-03-07T16:44:26;12.50;;;6.72;;
23676;SDS011;31493;49.058;12.190;2023-03-07T16:46:56;12.55;;;7.88;;
23676;SDS011;31493;49.058;12.190;2023-03-07T16:49:29;13.95;;;7.28;;
23676;SDS011;31493;49.058;12.190;2023-03-07T16:51:56;14.63;;;7.68;;
23676;SDS011;31493;49.058;12.190;2023-03-07T16:54:23;12.88;;;7.03;;
23676;SDS011;31493;49.058;12.190;2023-03-07T16:56:50;12.82;;;7.30;;
23676;SDS011;31493;49.058;12.190;2023-03-07T16:59:20;12.77;;;7.45;;
23676;SDS011;31493;49.058;12.190;2023-03-07T17:01:50;11.65;;;7.30;;
23676;SDS011;31493;49.058;12.190;2023-03-07T17:04:21;11.13;;;6.88;;
23676;SDS011;31493;49.058;12.190;2023-03-07T17:06:48;8.50;;;5.57;;
23676;SDS011;31493;49.058;12.190;2023-03-07T17:09:15;10.98;;;6.72;;
23676;SDS011;31493;49.058;12.190;2023-03-07T17:11:42;12.30;;;6.82;;
23676;SDS011;31493;49.058;12.190;2023-03-07T17:14:12;9.77;;;6.15;;
23676;SDS011;31493;49.058;12.190;2023-03-07T17:19:11;9.48;;;5.82;;
23676;SDS011;31493;49.058;12.190;2023-03-07T17:21:49;10.50;;;6.10;;
23676;SDS011;31493;49.058;12.190;2023-03-07T17:24:16;10.07;;;6.40;;
23676;SDS011;31493;49.058;12.190;2023-03-07T17:26:43;10.73;;;5.88;;
23676;SDS011;31493;49.058;12.190;2023-03-07T17:29:13;9.00;;;5.45;;
23676;SDS011;31493;49.058;12.190;2023-03-07T17:31:44;9.88;;;5.55;;
23676;SDS011;31493;49.058;12.190;2023-03-07T17:34:12;9.57;;;5.65;;
23676;SDS011;31493;49.058;12.190;2023-03-07T17:36:45;10.25;;;6.28;;
23676;SDS011;31493;49.058;12.190;2023-03-07T17:39:13;9.07;;;5.75;;
23676;SDS011;31493;49.058;12.190;2023-03-07T17:41:40;9.55;;;5.50;;
23676;SDS011;31493;49.058;12.190;2023-03-07T17:44:07;10.55;;;5.53;;
23676;SDS011;31493;49.058;12.190;2023-03-07T17:46:34;9.23;;;5.85;;
23676;SDS011;31493;49.058;12.190;2023-03-07T17:49:01;10.20;;;5.40;;
23676;SDS011;31493;49.058;12.190;2023-03-07T17:51:29;8.30;;;5.53;;
23676;SDS011;31493;49.058;12.190;2023-03-07T17:53:56;9.02;;;5.78;;
23676;SDS011;31493;49.058;12.190;2023-03-07T17:56:24;11.07;;;5.82;;
23676;SDS011;31493;49.058;12.190;2023-03-07T17:58:52;7.35;;;5.15;;
23676;SDS011;31493;49.058;12.190;2023-03-07T18:01:19;8.43;;;5.38;;
23676;SDS011;31493;49.058;12.190;2023-03-07T18:03:49;10.23;;;5.40;;
23676;SDS011;31493;49.058;12.190;2023-03-07T18:06:16;8.20;;;5.20;;
23676;SDS011;31493;49.058;12.190;2023-03-07T18:08:43;9.13;;;5.25;;
23676;SDS011;31493;49.058;12.190;2023-03-07T18:11:11;8.70;;;5.20;;
23676;SDS011;31493;49.058;12.190;2023-03-07T18:13:40;14.93;;;5.78;;
23676;SDS011;31493;49.058;12.190;2023-03-07T18:16:07;12.40;;;5.13;;
23676;SDS011;31493;49.058;12.190;2023-03-07T18:18:36;8.77;;;4.90;;
23676;SDS011;31493;49.058;12.190;2023-03-07T18:21:05;9.60;;;5.28;;
23676;SDS011;31493;49.058;12.190;2023-03-07T18:23:33;9.75;;;5.38;;
23676;SDS011;31493;49.058;12.190;2023-03-07T18:26:02;8.32;;;5.60;;
23676;SDS011;31493;49.058;12.190;2023-03-07T18:28:30;8.70;;;5.85;;
23676;SDS011;31493;49.058;12.190;2023-03-07T18:30:59;9.75;;;5.90;;
23676;SDS011;31493;49.058;12.190;2023-03-07T18:33:29;8.45;;;5.20;;
23676;SDS011;31493;49.058;12.190;2023-03-07T18:35:56;9.55;;;5.53;;
23676;SDS011;31493;49.058;12.190;2023-03-07T18:38:24;9.05;;;5.88;;
23676;SDS011;31493;49.058;12.190;2023-03-07T18:41:01;11.90;;;5.28;;
23676;SDS011;31493;49.058;12.190;2023-03-07T18:43:29;9.13;;;5.38;;
23676;SDS011;31493;49.058;12.190;2023-03-07T18:45:56;8.15;;;5.55;;
23676;SDS011;31493;49.058;12.190;2023-03-07T18:48:25;9.05;;;5.65;;
23676;SDS011;31493;49.058;12.190;2023-03-07T18:50:55;8.35;;;5.32;;
23676;SDS011;31493;49.058;12.190;2023-03-07T18:53:25;12.73;;;5.78;;
23676;SDS011;31493;49.058;12.190;2023-03-07T18:55:52;7.88;;;4.85;;
23676;SDS011;31493;49.058;12.190;2023-03-07T18:58:19;9.32;;;5.38;;
23676;SDS011;31493;49.058;12.190;2023-03-07T19:00:47;11.35;;;5.70;;
23676;SDS011;31493;49.058;12.190;2023-03-07T19:03:15;10.68;;;5.28;;
23676;SDS011;31493;49.058;12.190;2023-03-07T19:05:44;8.02;;;5.40;;
23676;SDS011;31493;49.058;12.190;2023-03-07T19:08:12;9.80;;;4.63;;
23676;SDS011;31493;49.058;12.190;2023-03-07T19:13:08;7.80;;;4.70;;
23676;SDS011;31493;49.058;12.190;2023-03-07T19:15:35;11.35;;;4.78;;
23676;SDS011;31493;49.058;12.190;2023-03-07T19:18:02;8.40;;;4.88;;
23676;SDS011;31493;49.058;12.190;2023-03-07T19:20:29;7.47;;;4.50;;
23676;SDS011;31493;49.058;12.190;2023-03-07T19:22:58;6.85;;;4.60;;
23676;SDS011;31493;49.058;12.190;2023-03-07T19:25:25;6.65;;;4.32;;
23676;SDS011;31493;49.058;12.190;2023-03-07T19:27:52;7.50;;;4.65;;
23676;SDS011;31493;49.058;12.190;2023-03-07T19:30:19;7.47;;;4.82;;
23676;SDS011;31493;49.058;12.190;2023-03-07T19:32:46;8.18;;;4.97;;
23676;SDS011;31493;49.058;12.190;2023-03-07T19:35:13;6.63;;;4.30;;
23676;SDS011;31493;49.058;12.190;2023-03-07T19:37:40;7.28;;;4.70;;
23676;SDS011;31493;49.058;12.190;2023-03-07T19:40:09;8.63;;;4.60;;
23676;SDS011;31493;49.058;12.190;2023-03-07T19:42:37;9.45;;;5.00;;
23676;SDS011;31493;49.058;12.190;2023-03-07T19:45:04;7.40;;;5.10;;
23676;SDS011;31493;49.058;12.190;2023-03-07T19:47:32;7.90;;;4.73;;
23676;SDS011;31493;49.058;12.190;2023-03-07T19:49:59;9.73;;;4.80;;
23676;SDS011;31493;49.058;12.190;2023-03-07T19:52:26;8.70;;;4.95;;
23676;SDS011;31493;49.058;12.190;2023-03-07T19:54:53;6.38;;;4.38;;
23676;SDS011;31493;49.058;12.190;2023-03-07T19:57:21;7.25;;;4.55;;
23676;SDS011;31493;49.058;12.190;2023-03-07T19:59:52;8.95;;;4.28;;
23676;SDS011;31493;49.058;12.190;2023-03-07T20:02:21;6.90;;;4.38;;
23676;SDS011;31493;49.058;12.190;2023-03-07T20:04:48;7.72;;;4.40;;
23676;SDS011;31493;49.058;12.190;2023-03-07T20:09:44;6.93;;;3.88;;
23676;SDS011;31493;49.058;12.190;2023-03-07T20:12:11;6.78;;;4.00;;
23676;SDS011;31493;49.058;12.190;2023-03-07T20:14:40;6.38;;;4.00;;
23676;SDS011;31493;49.058;12.190;2023-03-07T20:17:09;7.88;;;4.20;;
23676;SDS011;31493;49.058;12.190;2023-03-07T20:19:36;8.55;;;4.00;;
23676;SDS011;31493;49.058;12.190;2023-03-07T20:22:04;7.60;;;4.30;;
23676;SDS011;31493;49.058;12.190;2023-03-07T20:24:31;8.85;;;4.10;;
23676;SDS011;31493;49.058;12.190;2023-03-07T20:27:00;7.55;;;4.20;;
23676;SDS011;31493;49.058;12.190;2023-03-07T20:29:27;6.13;;;3.42;;
23676;SDS011;31493;49.058;12.190;2023-03-07T20:31:56;6.30;;;3.92;;
23676;SDS011;31493;49.058;12.190;2023-03-07T20:34:23;7.45;;;3.88;;
23676;SDS011;31493;49.058;12.190;2023-03-07T20:36:50;8.15;;;4.40;;
23676;SDS011;31493;49.058;12.190;2023-03-07T20:39:19;7.63;;;4.43;;
23676;SDS011;31493;49.058;12.190;2023-03-07T20:41:46;8.90;;;4.90;;
23676;SDS011;31493;49.058;12.190;2023-03-07T20:44:13;8.90;;;4.70;;
23676;SDS011;31493;49.058;12.190;2023-03-07T20:46:41;10.45;;;4.63;;
23676;SDS011;31493;49.058;12.190;2023-03-07T20:49:10;8.35;;;4.65;;
23676;SDS011;31493;49.058;12.190;2023-03-07T20:51:39;6.72;;;4.13;;
23676;SDS011;31493;49.058;12.190;2023-03-07T20:54:07;9.13;;;4.43;;
23676;SDS011;31493;49.058;12.190;2023-03-07T20:56:36;9.35;;;4.53;;
23676;SDS011;31493;49.058;12.190;2023-03-07T20:59:04;8.02;;;4.45;;
23676;SDS011;31493;49.058;12.190;2023-03-07T21:01:33;8.63;;;3.13;;
23676;SDS011;31493;49.058;12.190;2023-03-07T21:04:01;9.38;;;4.75;;
23676;SDS011;31493;49.058;12.190;2023-03-07T21:06:32;9.38;;;4.95;;
23676;SDS011;31493;49.058;12.190;2023-03-07T21:09:00;8.25;;;3.83;;
23676;SDS011;31493;49.058;12.190;2023-03-07T21:11:30;8.90;;;4.70;;
23676;SDS011;31493;49.058;12.190;2023-03-07T21:13:57;9.82;;;4.63;;
23676;SDS011;31493;49.058;12.190;2023-03-07T21:16:25;7.43;;;4.45;;
23676;SDS011;31493;49.058;12.190;2023-03-07T21:18:55;13.35;;;5.07;;
23676;SDS011;31493;49.058;12.190;2023-03-07T21:21:22;9.23;;;4.32;;
23676;SDS011;31493;49.058;12.190;2023-03-07T21:23:50;8.32;;;4.20;;
23676;SDS011;31493;49.058;12.190;2023-03-07T21:26:18;8.10;;;4.65;;
23676;SDS011;31493;49.058;12.190;2023-03-07T21:31:15;7.95;;;4.53;;
23676;SDS011;31493;49.058;12.190;2023-03-07T21:33:44;8.05;;;4.50;;
23676;SDS011;31493;49.058;12.190;2023-03-07T21:36:13;6.40;;;4.30;;
23676;SDS011;31493;49.058;12.190;2023-03-07T21:38:41;9.10;;;4.50;;
23676;SDS011;31493;49.058;12.190;2023-03-07T21:41:10;6.50;;;3.92;;
23676;SDS011;31493;49.058;12.190;2023-03-07T21:43:38;5.70;;;3.22;;
23676;SDS011;31493;49.058;12.190;2023-03-07T21:46:06;7.55;;;3.85;;
23676;SDS011;31493;49.058;12.190;2023-03-07T21:51:01;9.75;;;4.15;;
23676;SDS011;31493;49.058;12.190;2023-03-07T21:53:29;7.53;;;4.00;;
23676;SDS011;31493;49.058;12.190;2023-03-07T21:55:57;7.18;;;4.53;;
23676;SDS011;31493;49.058;12.190;2023-03-07T21:58:27;11.20;;;4.45;;
23676;SDS011;31493;49.058;12.190;2023-03-07T22:00:55;6.97;;;4.43;;
23676;SDS011;31493;49.058;12.190;2023-03-07T22:03:24;5.95;;;3.13;;
23676;SDS011;31493;49.058;12.190;2023-03-07T22:05:52;5.70;;;3.13;;
23676;SDS011;31493;49.058;12.190;2023-03-07T22:08:19;7.65;;;4.35;;
23676;SDS011;31493;49.058;12.190;2023-03-07T22:10:54;8.75;;;4.07;;
23676;SDS011;31493;49.058;12.190;2023-03-07T22:13:21;7.35;;;4.40;;
23676;SDS011;31493;49.058;12.190;2023-03-07T22:15:49;9.68;;;4.47;;
23676;SDS011;31493;49.058;12.190;2023-03-07T22:18:20;7.65;;;3.97;;
23676;SDS011;31493;49.058;12.190;2023-03-07T22:20:47;6.18;;;3.35;;
23676;SDS011;31493;49.058;12.190;2023-03-07T22:23:14;6.90;;;3.90;;
23676;SDS011;31493;49.058;12.190;2023-03-07T22:25:41;8.75;;;4.53;;
23676;SDS011;31493;49.058;12.190;2023-03-07T22:28:10;7.28;;;4.25;;
23676;SDS011;31493;49.058;12.190;2023-03-07T22:30:37;9.07;;;3.47;;
23676;SDS011;31493;49.058;12.190;2023-03-07T22:33:05;12.65;;;4.47;;
23676;SDS011;31493;49.058;12.190;2023-03-07T22:35:32;7.55;;;4.15;;
23676;SDS011;31493;49.058;12.190;2023-03-07T22:37:59;7.35;;;3.75;;
23676;SDS011;31493;49.058;12.190;2023-03-07T22:40:26;9.25;;;4.20;;
23676;SDS011;31493;49.058;12.190;2023-03-07T22:42:53;9.07;;;4.38;;
23676;SDS011;31493;49.058;12.190;2023-03-07T22:45:20;8.40;;;4.00;;
23676;SDS011;31493;49.058;12.190;2023-03-07T22:47:47;8.25;;;4.65;;
23676;SDS011;31493;49.058;12.190;2023-03-07T22:50:16;8.52;;;4.50;;
23676;SDS011;31493;49.058;12.190;2023-03-07T22:52:43;8.20;;;4.00;;
23676;SDS011;31493;49.058;12.190;2023-03-07T22:55:10;8.10;;;4.60;;
23676;SDS011;31493;49.058;12.190;2023-03-07T22:57:36;12.38;;;4.07;;
23676;SDS011;31493;49.058;12.190;2023-03-07T23:00:04;10.05;;;4.68;;
23676;SDS011;31493;49.058;12.190;2023-03-07T23:02:32;9.20;;;4.70;;
23676;SDS011;31493;49.058;12.190;2023-03-07T23:04:59;9.57;;;5.28;;
23676;SDS011;31493;49.058;12.190;2023-03-07T23:07:28;11.40;;;5.30;;
23676;SDS011;31493;49.058;12.190;2023-03-07T23:09:55;5.00;;;2.95;;
23676;SDS011;31493;49.058;12.190;2023-03-07T23:12:22;7.47;;;5.20;;
23676;SDS011;31493;49.058;12.190;2023-03-07T23:14:48;9.90;;;5.15;;
23676;SDS011;31493;49.058;12.190;2023-03-07T23:17:15;8.60;;;5.57;;
23676;SDS011;31493;49.058;12.190;2023-03-07T23:19:42;8.85;;;4.65;;
23676;SDS011;31493;49.058;12.190;2023-03-07T23:22:09;10.50;;;6.18;;
23676;SDS011;31493;49.058;12.190;2023-03-07T23:24:38;8.68;;;4.85;;
23676;SDS011;31493;49.058;12.190;2023-03-07T23:27:05;9.77;;;5.25;;
23676;SDS011;31493;49.058;12.190;2023-03-07T23:29:32;11.20;;;6.30;;
23676;SDS011;31493;49.058;12.190;2023-03-07T23:31:59;11.18;;;5.55;;
23676;SDS011;31493;49.058;12.190;2023-03-07T23:34:28;11.52;;;5.72;;
23676;SDS011;31493;49.058;12.190;2023-03-07T23:36:55;13.52;;;6.18;;
23676;SDS011;31493;49.058;12.190;2023-03-07T23:39:22;11.32;;;5.93;;
23676;SDS011;31493;49.058;12.190;2023-03-07T23:41:51;10.60;;;6.28;;
23676;SDS011;31493;49.058;12.190;2023-03-07T23:44:18;9.98;;;5.78;;
23676;SDS011;31493;49.058;12.190;2023-03-07T23:46:45;11.35;;;6.07;;
23676;SDS011;31493;49.058;12.190;2023-03-07T23:49:12;8.60;;;5.53;;
23676;SDS011;31493;49.058;12.190;2023-03-07T23:51:39;11.23;;;6.18;;
23676;SDS011;31493;49.058;12.190;2023-03-07T23:54:06;10.38;;;4.95;;
23676;SDS011;31493;49.058;12.190;2023-03-07T23:56:33;11.63;;;6.30;;
23676;SDS011;31493;49.058;12.190;2023-03-07T23:59:01;11.38;;;5.20;;
